Terminal Aerodrome Forecast
Issued by NWS North Platte, NE

Home | Current Version | Previous Version | Graphics & Text | Print | Product List | Glossary On
Versions: 1 2 3 4 5 6 7 8 9 10 11 12 13 14 15 16 17 18
000
FTUS43 KLBF 162300
TAFVTN
TAF
KVTN 162320Z 1700/1724 VRB04KT P6SM SCT250
     FM171700 09009KT P6SM SKC=

USA.gov is the U.S. government's official web portal to all federal, state and local government web resources and services.